createdAt,value
2023-03-13T00:02:44.447Z,985
2023-03-13T00:05:11.117Z,984.9
2023-03-13T00:07:37.813Z,984.9
2023-03-13T00:10:04.484Z,984.9
2023-03-13T00:12:31.179Z,984.8
2023-03-13T00:14:57.863Z,984.9
2023-03-13T00:17:24.546Z,984.8
2023-03-13T00:19:51.238Z,984.8
2023-03-13T00:22:17.928Z,984.8
2023-03-13T00:24:43.165Z,984.8
2023-03-13T00:27:09.838Z,984.8
2023-03-13T00:29:36.646Z,984.8
2023-03-13T00:32:03.271Z,984.8
2023-03-13T00:34:29.886Z,984.8
2023-03-13T00:36:56.628Z,984.8
2023-03-13T00:39:23.276Z,984.8
2023-03-13T00:41:50.043Z,984.8
2023-03-13T00:44:16.634Z,984.8
2023-03-13T00:49:10.001Z,984.7
2023-03-13T00:51:36.690Z,984.7
2023-03-13T00:54:03.368Z,984.8
2023-03-13T00:56:30.051Z,984.7
2023-03-13T00:58:55.305Z,984.7
2023-03-13T01:03:48.647Z,984.6
2023-03-13T01:06:15.337Z,984.5
2023-03-13T01:08:42.021Z,984.4
2023-03-13T01:11:08.720Z,984.4
2023-03-13T01:13:35.409Z,984.5
2023-03-13T01:16:02.073Z,984.4
2023-03-13T01:18:28.761Z,984.3
2023-03-13T01:20:55.459Z,984.3
2023-03-13T01:23:22.127Z,984.2
2023-03-13T01:25:48.822Z,984.2
2023-03-13T01:28:15.501Z,984.1
2023-03-13T01:30:40.718Z,984.1
2023-03-13T01:33:07.406Z,984
2023-03-13T01:35:34.094Z,984
2023-03-13T01:38:00.786Z,983.9
2023-03-13T01:40:27.466Z,983.9
2023-03-13T01:42:54.152Z,983.9
2023-03-13T01:45:20.835Z,983.8
2023-03-13T01:50:14.208Z,983.8
2023-03-13T01:52:40.883Z,983.7
2023-03-13T01:55:07.586Z,983.7
2023-03-13T01:57:34.274Z,983.7
2023-03-13T02:00:00.933Z,983.6
2023-03-13T02:02:26.194Z,983.6
2023-03-13T02:04:52.859Z,983.5
2023-03-13T02:07:19.540Z,983.5
2023-03-13T02:09:46.218Z,983.5
2023-03-13T02:12:12.968Z,983.4
2023-03-13T02:14:39.595Z,983.4
2023-03-13T02:17:06.273Z,983.4
2023-03-13T02:19:32.970Z,983.4
2023-03-13T02:21:59.644Z,983.3
2023-03-13T02:24:26.320Z,983.3
2023-03-13T02:26:53.004Z,983.2
2023-03-13T02:29:19.754Z,983.2
2023-03-13T02:31:46.385Z,983.2
2023-03-13T02:34:13.073Z,983.2
2023-03-13T02:36:39.750Z,983.3
2023-03-13T02:39:06.443Z,983.1
2023-03-13T02:41:31.660Z,983.1
2023-03-13T02:43:58.346Z,983
2023-03-13T02:46:25.037Z,983.1
2023-03-13T02:48:51.706Z,983
2023-03-13T02:51:18.395Z,983
2023-03-13T02:53:45.092Z,982.9
2023-03-13T02:56:11.771Z,982.9
2023-03-13T02:58:38.548Z,982.9
2023-03-13T03:01:05.128Z,982.8
2023-03-13T03:03:31.828Z,982.7
2023-03-13T03:05:58.525Z,982.6
2023-03-13T03:08:25.188Z,982.5
2023-03-13T03:10:51.880Z,982.4
2023-03-13T03:13:18.575Z,982.4
2023-03-13T03:15:43.787Z,982.4
2023-03-13T03:18:10.483Z,982.3
2023-03-13T03:20:37.157Z,982.3
2023-03-13T03:23:03.834Z,982.2
2023-03-13T03:25:30.524Z,982.2
2023-03-13T03:27:57.206Z,982.2
2023-03-13T03:30:23.893Z,982.2
2023-03-13T03:32:50.575Z,982.2
2023-03-13T03:35:17.268Z,982.1
2023-03-13T03:37:43.936Z,982.2
2023-03-13T03:40:10.629Z,982.1
2023-03-13T03:42:37.315Z,982
2023-03-13T03:45:03.997Z,982.1
2023-03-13T03:47:29.218Z,982
2023-03-13T03:52:22.576Z,981.9
2023-03-13T03:54:49.272Z,981.9
2023-03-13T03:57:15.961Z,982
2023-03-13T03:59:42.656Z,981.9
2023-03-13T04:02:09.353Z,981.9
2023-03-13T04:04:36.008Z,981.9
2023-03-13T04:07:02.703Z,982
2023-03-13T04:09:29.413Z,982
2023-03-13T04:11:56.077Z,982
2023-03-13T04:14:22.780Z,981.9
2023-03-13T04:16:49.459Z,982
2023-03-13T04:19:14.680Z,982.1
2023-03-13T04:21:41.352Z,982
2023-03-13T04:24:08.044Z,982
2023-03-13T04:26:34.724Z,982
2023-03-13T04:29:01.404Z,981.8
2023-03-13T04:33:54.769Z,981.7
2023-03-13T04:36:21.466Z,981.7
2023-03-13T04:38:48.138Z,981.7
2023-03-13T04:41:14.836Z,981.7
2023-03-13T04:46:08.205Z,981.7
2023-03-13T04:48:34.885Z,981.7
2023-03-13T04:51:00.137Z,981.6
2023-03-13T04:53:26.801Z,981.7
2023-03-13T04:58:20.156Z,981.6
2023-03-13T05:00:45.478Z,981.6
2023-03-13T05:03:10.640Z,981.6
2023-03-13T05:05:37.318Z,981.6
2023-03-13T05:08:04.018Z,981.6
2023-03-13T05:10:30.790Z,981.7
2023-03-13T05:12:57.382Z,981.6
2023-03-13T05:15:24.089Z,981.7
2023-03-13T05:17:50.799Z,981.6
2023-03-13T05:20:17.443Z,981.6
2023-03-13T05:22:44.139Z,981.7
2023-03-13T05:25:10.826Z,981.6
2023-03-13T05:27:37.494Z,981.6
2023-03-13T05:30:04.184Z,981.5
2023-03-13T05:32:30.850Z,981.4
2023-03-13T05:34:57.552Z,981.4
2023-03-13T05:37:24.245Z,981.4
2023-03-13T05:42:17.593Z,981.5
2023-03-13T05:44:44.285Z,981.5
2023-03-13T05:47:09.511Z,981.4
2023-03-13T05:49:36.218Z,981.5
2023-03-13T05:52:02.894Z,981.3
2023-03-13T05:54:28.144Z,981.3
2023-03-13T05:56:53.381Z,981.3
2023-03-13T05:59:20.053Z,981.4
2023-03-13T06:01:46.733Z,981.3
2023-03-13T06:04:13.500Z,981.3
2023-03-13T06:06:40.093Z,981.3
2023-03-13T06:09:06.875Z,981.2
2023-03-13T06:11:33.471Z,981.2
2023-03-13T06:14:00.205Z,981.2
2023-03-13T06:16:26.845Z,981.3
2023-03-13T06:18:53.558Z,981.2
2023-03-13T06:21:20.203Z,981.2
2023-03-13T06:23:46.880Z,981.3
2023-03-13T06:26:13.574Z,981.2
2023-03-13T06:28:38.843Z,981.3
2023-03-13T06:31:05.480Z,981.4
2023-03-13T06:33:32.202Z,981.4
2023-03-13T06:35:58.855Z,981.3
2023-03-13T06:38:25.528Z,981.3
2023-03-13T06:40:52.384Z,981.3
2023-03-13T06:43:18.894Z,981.3
2023-03-13T06:45:45.662Z,981.3
2023-03-13T06:48:12.414Z,981.3
2023-03-13T06:50:37.565Z,981.2
2023-03-13T06:53:04.273Z,981.3
2023-03-13T06:55:30.981Z,981.3
2023-03-13T06:57:57.683Z,981.3
2023-03-13T07:00:24.385Z,981.2
2023-03-13T07:02:51.104Z,981.3
2023-03-13T07:05:17.741Z,981.4
2023-03-13T07:07:44.443Z,981.4
2023-03-13T07:10:11.130Z,981.4
2023-03-13T07:12:37.866Z,981.4
2023-03-13T07:15:04.458Z,981.4
2023-03-13T07:17:31.214Z,981.4
2023-03-13T07:19:57.760Z,981.5
2023-03-13T07:22:23.082Z,981.6
2023-03-13T07:24:49.640Z,981.6
2023-03-13T07:27:16.426Z,981.6
2023-03-13T07:29:43.201Z,981.7
2023-03-13T07:32:09.860Z,981.6
2023-03-13T07:34:36.377Z,981.6
2023-03-13T07:37:03.299Z,981.5
2023-03-13T07:39:29.832Z,981.5
2023-03-13T07:41:56.435Z,981.6
2023-03-13T07:44:23.165Z,981.5
2023-03-13T07:46:49.964Z,981.5
2023-03-13T07:49:16.572Z,981.5
2023-03-13T07:51:43.299Z,981.4
2023-03-13T07:54:10.035Z,981.4
2023-03-13T07:56:35.252Z,981.4
2023-03-13T07:59:01.993Z,981.4
2023-03-13T08:01:28.591Z,981.4
2023-03-13T08:03:55.300Z,981.3
2023-03-13T08:06:21.931Z,981.3
2023-03-13T08:08:48.612Z,981.3
2023-03-13T08:11:15.263Z,981.2
2023-03-13T08:13:41.858Z,981.1
2023-03-13T08:16:08.541Z,981.1
2023-03-13T08:18:35.254Z,981.1
2023-03-13T08:21:01.963Z,981
2023-03-13T08:23:28.691Z,981
2023-03-13T08:25:55.287Z,980.9
2023-03-13T08:28:20.523Z,980.8
2023-03-13T08:30:47.223Z,980.9
2023-03-13T08:33:13.967Z,980.6
2023-03-13T08:35:40.568Z,980.5
2023-03-13T08:38:07.253Z,980.6
2023-03-13T08:40:33.928Z,980.5
2023-03-13T08:43:00.611Z,980.4
2023-03-13T08:45:27.385Z,980.5
2023-03-13T08:47:53.990Z,980.5
2023-03-13T08:50:20.668Z,980.7
2023-03-13T08:52:47.382Z,980.6
2023-03-13T08:55:14.100Z,980.5
2023-03-13T08:57:40.747Z,980.5
2023-03-13T09:00:05.952Z,980.5
2023-03-13T09:02:32.623Z,980.5
2023-03-13T09:04:59.357Z,980.5
2023-03-13T09:07:25.999Z,980.6
2023-03-13T09:09:52.703Z,980.7
2023-03-13T09:12:19.376Z,980.6
2023-03-13T09:17:12.749Z,980.6
2023-03-13T09:19:39.488Z,980.5
2023-03-13T09:22:06.126Z,980.5
2023-03-13T09:24:32.809Z,980.6
2023-03-13T09:26:59.486Z,980.5
2023-03-13T09:29:26.290Z,980.5
2023-03-13T09:31:52.847Z,980.5
2023-03-13T09:34:18.109Z,980.5
2023-03-13T09:36:44.898Z,980.5
2023-03-13T09:39:11.541Z,980.5
2023-03-13T09:41:38.120Z,980.5
2023-03-13T09:44:04.998Z,980.5
2023-03-13T09:46:31.493Z,980.6
2023-03-13T09:48:58.231Z,980.6
2023-03-13T09:51:24.899Z,980.5
2023-03-13T09:53:51.528Z,980.6
2023-03-13T09:56:18.266Z,980.7
2023-03-13T09:58:44.935Z,980.7
2023-03-13T10:01:11.598Z,980.7
2023-03-13T10:03:38.286Z,980.7
2023-03-13T10:06:03.507Z,980.7
2023-03-13T10:08:30.192Z,980.7
2023-03-13T10:10:56.874Z,980.7
2023-03-13T10:13:23.551Z,980.6
2023-03-13T10:15:50.337Z,980.5
2023-03-13T10:18:16.927Z,980.5
2023-03-13T10:20:43.607Z,980.4
2023-03-13T10:23:10.337Z,980.3
2023-03-13T10:25:36.980Z,980.3
2023-03-13T10:28:03.674Z,980.3
2023-03-13T10:30:30.340Z,980.2
2023-03-13T10:32:57.020Z,980.2
2023-03-13T10:35:23.726Z,980.1
2023-03-13T10:40:15.616Z,979.8
2023-03-13T10:42:42.305Z,979.8
2023-03-13T10:45:08.988Z,979.8
2023-03-13T10:47:35.684Z,979.8
2023-03-13T10:50:02.357Z,979.7
2023-03-13T10:52:29.035Z,979.7
2023-03-13T10:54:55.727Z,979.6
2023-03-13T10:57:22.400Z,979.7
2023-03-13T10:59:49.167Z,979.5
2023-03-13T11:02:15.803Z,979.6
2023-03-13T11:04:42.542Z,979.5
2023-03-13T11:07:09.195Z,979.4
2023-03-13T11:09:34.528Z,979.5
2023-03-13T11:12:01.117Z,979.4
2023-03-13T11:14:27.777Z,979.3
2023-03-13T11:16:54.425Z,979.3
2023-03-13T11:19:21.121Z,979.4
2023-03-13T11:21:47.803Z,979.5
2023-03-13T11:24:14.483Z,979.3
2023-03-13T11:26:41.157Z,979.4
2023-03-13T11:29:07.841Z,979.2
2023-03-13T11:31:34.538Z,979.2
2023-03-13T11:34:01.211Z,979.1
2023-03-13T11:36:28.033Z,979.1
2023-03-13T11:38:54.774Z,979.1
2023-03-13T11:41:20.036Z,979
2023-03-13T11:43:46.663Z,978.9
2023-03-13T11:46:13.360Z,978.8
2023-03-13T11:48:40.046Z,978.6
2023-03-13T11:51:06.614Z,978.6
2023-03-13T11:53:33.315Z,978.6
2023-03-13T11:55:59.975Z,978.6
2023-03-13T11:58:26.684Z,978.5
2023-03-13T12:00:53.316Z,978.5
2023-03-13T12:03:19.983Z,978.4
2023-03-13T12:05:46.646Z,978.3
2023-03-13T12:08:13.324Z,978.2
2023-03-13T12:13:06.706Z,978.1
2023-03-13T12:15:31.938Z,978
2023-03-13T12:17:58.598Z,977.9
2023-03-13T12:20:25.301Z,977.8
2023-03-13T12:22:52.044Z,977.8
2023-03-13T12:25:18.668Z,977.7
2023-03-13T12:27:45.407Z,977.8
2023-03-13T12:30:12.099Z,977.7
2023-03-13T12:32:38.708Z,977.6
2023-03-13T12:35:05.455Z,977.5
2023-03-13T12:37:32.244Z,977.4
2023-03-13T12:39:58.848Z,977.3
2023-03-13T12:42:25.462Z,977.3
2023-03-13T12:44:52.235Z,977.2
2023-03-13T12:47:18.815Z,977.2
2023-03-13T12:49:44.035Z,977
2023-03-13T12:52:10.729Z,976.9
2023-03-13T12:54:37.410Z,976.9
2023-03-13T12:57:04.102Z,976.9
2023-03-13T12:59:30.789Z,976.8
2023-03-13T13:01:57.463Z,976.6
2023-03-13T13:04:24.171Z,976.6
2023-03-13T13:06:50.831Z,976.5
2023-03-13T13:09:17.521Z,976.4
2023-03-13T13:11:44.191Z,976.4
2023-03-13T13:14:10.880Z,976.2
2023-03-13T13:16:37.597Z,976.1
2023-03-13T13:21:30.936Z,976.1
2023-03-13T13:23:56.160Z,976
2023-03-13T13:26:22.853Z,975.9
2023-03-13T13:28:49.554Z,975.9
2023-03-13T13:31:16.230Z,975.8
2023-03-13T13:33:42.904Z,975.7
2023-03-13T13:36:09.576Z,975.7
2023-03-13T13:38:36.275Z,975.6
2023-03-13T13:41:02.951Z,975.6
2023-03-13T13:45:56.318Z,975.5
2023-03-13T13:48:22.997Z,975.5
2023-03-13T13:50:49.685Z,975.4
2023-03-13T13:53:16.366Z,975.4
2023-03-13T13:55:43.080Z,975.2
2023-03-13T13:58:09.737Z,975.3
2023-03-13T14:00:36.416Z,975.1
2023-03-13T14:03:01.637Z,975.2
2023-03-13T14:05:28.327Z,975.1
2023-03-13T14:07:55.000Z,975.1
2023-03-13T14:10:21.690Z,975
2023-03-13T14:12:48.369Z,974.9
2023-03-13T14:15:15.068Z,974.9
2023-03-13T14:17:41.742Z,974.9
2023-03-13T14:20:08.441Z,974.9
2023-03-13T14:22:35.121Z,974.7
2023-03-13T14:25:01.793Z,974.7
2023-03-13T14:27:28.514Z,974.6
2023-03-13T14:29:55.167Z,974.6
2023-03-13T14:32:21.916Z,974.6
2023-03-13T14:34:47.200Z,974.6
2023-03-13T14:37:13.761Z,974.5
2023-03-13T14:39:40.443Z,974.5
2023-03-13T14:42:07.126Z,974.4
2023-03-13T14:44:33.814Z,974.3
2023-03-13T14:47:00.497Z,974.3
2023-03-13T14:49:27.168Z,974.2
2023-03-13T14:51:53.870Z,974.2
2023-03-13T14:54:20.564Z,974
2023-03-13T14:56:47.221Z,974
2023-03-13T14:59:13.910Z,973.9
2023-03-13T15:01:39.172Z,973.8
2023-03-13T15:04:05.839Z,973.8
2023-03-13T15:06:32.508Z,973.7
2023-03-13T15:08:59.194Z,973.7
2023-03-13T15:11:25.885Z,973.6
2023-03-13T15:13:52.561Z,973.5
2023-03-13T15:16:19.254Z,973.5
2023-03-13T15:18:45.941Z,973.5
2023-03-13T15:23:39.310Z,973.3
2023-03-13T15:26:05.983Z,973.2
2023-03-13T15:28:32.668Z,973.1
2023-03-13T15:30:59.355Z,973.1
2023-03-13T15:33:24.593Z,973
2023-03-13T15:35:51.259Z,972.9
2023-03-13T15:38:17.953Z,972.8
2023-03-13T15:40:44.652Z,972.7
2023-03-13T15:43:11.316Z,972.6
2023-03-13T15:45:37.999Z,972.6
2023-03-13T15:48:04.702Z,972.5
2023-03-13T15:50:31.367Z,972.5
2023-03-13T15:52:58.056Z,972.5
2023-03-13T15:55:24.739Z,972.4
2023-03-13T15:57:51.447Z,972.4
2023-03-13T16:00:18.138Z,972.4
2023-03-13T16:02:44.785Z,972.4
2023-03-13T16:05:10.008Z,972.4
2023-03-13T16:07:36.715Z,972.4
2023-03-13T16:10:03.405Z,972.3
2023-03-13T16:12:30.071Z,972.3
2023-03-13T16:14:56.751Z,972.2
2023-03-13T16:17:23.441Z,972.2
2023-03-13T16:19:50.223Z,972.3
2023-03-13T16:22:16.802Z,972.2
2023-03-13T16:24:43.493Z,972
2023-03-13T16:27:10.166Z,971.9
2023-03-13T16:29:36.879Z,972
2023-03-13T16:32:03.547Z,971.9
2023-03-13T16:34:30.304Z,971.8
2023-03-13T16:36:55.447Z,971.8
2023-03-13T16:39:22.124Z,971.8
2023-03-13T16:41:48.817Z,971.7
2023-03-13T16:44:15.504Z,971.7
2023-03-13T16:46:42.191Z,971.8
2023-03-13T16:49:08.872Z,971.7
2023-03-13T16:51:35.559Z,971.8
2023-03-13T16:54:02.234Z,971.8
2023-03-13T16:56:29.119Z,971.7
2023-03-13T16:58:55.792Z,971.6
2023-03-13T17:01:22.467Z,971.6
2023-03-13T17:03:49.139Z,971.6
2023-03-13T17:06:15.659Z,971.5
2023-03-13T17:08:40.897Z,971.5
2023-03-13T17:13:34.459Z,971.5
2023-03-13T17:16:01.171Z,971.4
2023-03-13T17:18:27.631Z,971.4
2023-03-13T17:20:54.526Z,971.4
2023-03-13T17:23:21.212Z,971.3
2023-03-13T17:25:47.730Z,971.3
2023-03-13T17:28:14.540Z,971.3
2023-03-13T17:30:41.222Z,971.2
2023-03-13T17:33:07.956Z,971.2
2023-03-13T17:35:34.623Z,971.2
2023-03-13T17:38:01.347Z,971.1
2023-03-13T17:40:26.488Z,971
2023-03-13T17:42:53.090Z,971.1
2023-03-13T17:45:19.855Z,971
2023-03-13T17:47:46.526Z,970.9
2023-03-13T17:50:13.242Z,970.8
2023-03-13T17:52:39.928Z,970.9
2023-03-13T17:55:06.608Z,970.8
2023-03-13T17:57:33.275Z,970.7
2023-03-13T18:02:26.714Z,970.5
2023-03-13T18:04:53.295Z,970.4
2023-03-13T18:07:20.019Z,970.4
2023-03-13T18:09:46.730Z,970.4
2023-03-13T18:12:11.958Z,970.3
2023-03-13T18:14:38.569Z,970.3
2023-03-13T18:17:05.248Z,970.2
2023-03-13T18:19:31.840Z,970.1
2023-03-13T18:21:58.698Z,970
2023-03-13T18:26:51.862Z,969.9
2023-03-13T18:29:18.669Z,969.8
2023-03-13T18:31:45.437Z,969.9
2023-03-13T18:34:11.938Z,969.9
2023-03-13T18:39:05.450Z,969.9
2023-03-13T18:41:30.592Z,969.9
2023-03-13T18:43:55.941Z,969.8
2023-03-13T18:46:22.691Z,969.7
2023-03-13T18:48:49.342Z,969.5
2023-03-13T18:51:15.989Z,969.5
2023-03-13T18:53:42.670Z,970.2
2023-03-13T18:56:09.279Z,970.7
2023-03-13T18:58:35.931Z,971.3
2023-03-13T19:01:02.793Z,972.5
2023-03-13T19:03:29.272Z,972.9
2023-03-13T19:05:56.140Z,973
2023-03-13T19:08:22.785Z,972.5
2023-03-13T19:13:14.720Z,972.4
2023-03-13T19:15:39.937Z,972.1
2023-03-13T19:18:06.458Z,971.8
2023-03-13T19:20:33.316Z,971.7
2023-03-13T19:23:00.036Z,971.5
2023-03-13T19:27:53.454Z,971.3
2023-03-13T19:30:18.626Z,971.2
2023-03-13T19:32:43.874Z,971.1
2023-03-13T19:35:10.508Z,971
2023-03-13T19:37:37.161Z,971.4
2023-03-13T19:40:03.902Z,971.5
2023-03-13T19:42:30.588Z,971.6
2023-03-13T19:44:57.270Z,971.5
2023-03-13T19:47:23.972Z,971.5
2023-03-13T19:49:50.610Z,971.4
2023-03-13T19:52:17.328Z,971.7
2023-03-13T19:54:44.051Z,971.9
2023-03-13T19:57:09.264Z,972
2023-03-13T19:59:34.298Z,972.1
2023-03-13T20:02:01.162Z,972.6
2023-03-13T20:04:27.677Z,972.4
2023-03-13T20:06:54.588Z,972.1
2023-03-13T20:11:47.938Z,973
2023-03-13T20:16:41.099Z,973.8
2023-03-13T20:21:34.667Z,974.2
2023-03-13T20:26:27.995Z,974.3
2023-03-13T20:31:21.346Z,974.3
2023-03-13T20:33:47.934Z,974.5
2023-03-13T20:36:13.330Z,974.7
2023-03-13T20:38:38.522Z,974.7
2023-03-13T20:41:05.276Z,975.1
2023-03-13T20:43:31.826Z,975.3
2023-03-13T20:45:58.465Z,975.3
2023-03-13T20:48:25.102Z,975.5
2023-03-13T20:50:51.948Z,975.6
2023-03-13T20:53:18.560Z,975.7
2023-03-13T20:55:45.159Z,975.5
2023-03-13T21:00:38.613Z,975.5
2023-03-13T21:05:32.045Z,975.3
2023-03-13T21:07:58.715Z,975.2
2023-03-13T21:10:25.409Z,975.1
2023-03-13T21:15:18.788Z,975.3
2023-03-13T21:17:43.921Z,975.3
2023-03-13T21:20:10.614Z,975.4
2023-03-13T21:22:37.372Z,975.5
2023-03-13T21:25:03.994Z,975.4
2023-03-13T21:27:30.745Z,975.3
2023-03-13T21:29:57.395Z,975.2
2023-03-13T21:37:17.356Z,975.4
2023-03-13T21:44:37.519Z,975.6
2023-03-13T21:47:04.160Z,975.5
2023-03-13T21:49:29.435Z,975.3
2023-03-13T21:51:56.065Z,975.1
2023-03-13T22:01:42.823Z,974.6
2023-03-13T22:04:09.525Z,974.7
2023-03-13T22:06:36.156Z,974.5
2023-03-13T22:09:02.816Z,974.4
2023-03-13T22:11:29.446Z,974.3
2023-03-13T22:13:56.215Z,974
2023-03-13T22:16:23.008Z,973.7
2023-03-13T22:18:49.510Z,973.6
2023-03-13T22:21:16.216Z,973.6
2023-03-13T22:28:36.228Z,973.3
2023-03-13T22:31:03.120Z,973.2
2023-03-13T22:33:28.225Z,973
2023-03-13T22:35:54.952Z,973.2
2023-03-13T22:38:21.709Z,973.4
2023-03-13T22:40:48.359Z,973.5
2023-03-13T22:43:14.876Z,973.2
2023-03-13T22:45:41.704Z,973
2023-03-13T22:48:08.391Z,973.1
2023-03-13T22:50:35.014Z,972.9
2023-03-13T22:57:54.984Z,972.8
2023-03-13T23:00:21.819Z,972.8
2023-03-13T23:02:48.348Z,972.9
2023-03-13T23:05:13.785Z,973
2023-03-13T23:07:40.530Z,973.2
2023-03-13T23:10:07.051Z,973.3
2023-03-13T23:12:32.345Z,973.4
2023-03-13T23:14:58.863Z,973.5
2023-03-13T23:17:25.663Z,973.5
2023-03-13T23:19:52.379Z,973.6
2023-03-13T23:22:19.051Z,973.7
2023-03-13T23:24:45.711Z,973.6
2023-03-13T23:27:12.444Z,973.8
2023-03-13T23:29:39.049Z,973.8
2023-03-13T23:32:05.807Z,973.9
2023-03-13T23:34:32.551Z,974
2023-03-13T23:36:59.167Z,974.1
2023-03-13T23:39:25.888Z,974.1
2023-03-13T23:41:52.438Z,973.9
2023-03-13T23:44:17.755Z,973.4
2023-03-13T23:46:42.967Z,973.3
2023-03-13T23:49:09.687Z,973.4
2023-03-13T23:51:34.877Z,973.4
2023-03-13T23:54:01.524Z,973.5
2023-03-13T23:56:28.275Z,973.5
